Time;durP1;ratioP1;P1;durP2;ratioP2;P2;SDS_P1;SDS_P2;PMS_P1;PMS_P2;Temp;Humidity;BMP_temperature;BMP_pressure;BME280_temperature;BME280_humidity;BME280_pressure;Samples;Min_cycle;Max_cycle;Signal;HPM_P1;HPM_P2
2023/12/04 07:56:30;;;;;;;22.85;14.00;;;;;;;;;;5090491;27;20911;-60
2023/12/04 07:58:57;;;;;;;28.83;17.48;;;;;;;;;;5090585;28;20737;-60
2023/12/04 08:01:24;;;;;;;22.95;13.63;;;;;;;;;;5090370;28;20199;-58
2023/12/04 08:03:51;;;;;;;24.92;15.18;;;;;;;;;;5090430;28;20220;-58
2023/12/04 08:06:19;;;;;;;26.70;14.80;;;;;;;;;;5090209;28;20609;-58
2023/12/04 08:08:45;;;;;;;27.92;16.42;;;;;;;;;;5090310;28;20192;-58
2023/12/04 08:11:13;;;;;;;27.45;16.30;;;;;;;;;;5089908;28;20292;-58
2023/12/04 08:13:41;;;;;;;30.73;19.88;;;;;;;;;;5089704;28;20188;-59
2023/12/04 08:16:14;;;;;;;23.02;16.55;;;;;;;;;;5089780;28;20217;-57
2023/12/04 08:18:41;;;;;;;24.33;14.77;;;;;;;;;;5090054;28;20211;-59
2023/12/04 08:21:09;;;;;;;24.35;15.82;;;;;;;;;;5089990;28;20243;-63
2023/12/04 08:23:36;;;;;;;22.95;15.20;;;;;;;;;;5089526;28;20239;-58
2023/12/04 08:26:03;;;;;;;18.90;12.95;;;;;;;;;;5089854;28;20307;-60
2023/12/04 08:28:30;;;;;;;21.92;12.75;;;;;;;;;;5089822;28;20192;-60
2023/12/04 08:30:59;;;;;;;18.27;12.43;;;;;;;;;;5089746;28;20189;-59
2023/12/04 08:33:26;;;;;;;20.02;12.02;;;;;;;;;;5089742;28;20193;-60
2023/12/04 08:35:52;;;;;;;19.92;12.10;;;;;;;;;;5089359;28;20549;-61
2023/12/04 08:38:19;;;;;;;20.85;13.60;;;;;;;;;;5089713;28;20189;-58
2023/12/04 08:40:46;;;;;;;18.63;12.80;;;;;;;;;;5089603;28;20275;-58
2023/12/04 08:43:13;;;;;;;17.75;12.68;;;;;;;;;;5089734;28;20593;-60
2023/12/04 08:45:40;;;;;;;20.70;13.27;;;;;;;;;;5089330;28;20739;-59
2023/12/04 08:48:10;;;;;;;17.63;11.43;;;;;;;;;;5089275;28;20279;-59
2023/12/04 08:50:37;;;;;;;21.48;13.05;;;;;;;;;;5089331;28;20675;-59
2023/12/04 08:53:04;;;;;;;20.42;13.57;;;;;;;;;;5089369;28;20188;-60
2023/12/04 08:55:31;;;;;;;25.55;17.10;;;;;;;;;;5089215;28;20252;-58
2023/12/04 08:57:58;;;;;;;28.27;17.02;;;;;;;;;;5089334;28;20193;-58
2023/12/04 09:00:25;;;;;;;21.90;14.35;;;;;;;;;;5089208;28;20275;-60
2023/12/04 09:02:53;;;;;;;29.50;14.55;;;;;;;;;;5089053;28;20275;-61
2023/12/04 09:05:22;;;;;;;22.42;13.35;;;;;;;;;;5088896;28;20255;-62
2023/12/04 09:07:49;;;;;;;20.45;11.57;;;;;;;;;;5075775;28;20189;-61
2023/12/04 09:10:16;;;;;;;18.27;12.55;;;;;;;;;;5075649;28;20276;-61
2023/12/04 09:12:43;;;;;;;20.88;12.55;;;;;;;;;;5075346;28;20560;-58
2023/12/04 09:15:11;;;;;;;39.30;24.00;;;;;;;;;;5075415;28;20203;-58
2023/12/04 09:17:39;;;;;;;35.88;22.75;;;;;;;;;;5074370;28;20503;-60
2023/12/04 09:20:06;;;;;;;25.50;15.95;;;;;;;;;;5075645;28;20229;-57
2023/12/04 09:22:38;;;;;;;24.75;16.17;;;;;;;;;;5075420;28;20613;-59
2023/12/04 09:25:05;;;;;;;22.95;13.82;;;;;;;;;;5075222;28;20212;-59
2023/12/04 09:27:32;;;;;;;20.25;13.45;;;;;;;;;;5075154;28;20226;-58
2023/12/04 09:29:59;;;;;;;21.60;13.35;;;;;;;;;;5075176;28;20201;-59
2023/12/04 09:32:26;;;;;;;19.33;12.38;;;;;;;;;;5074484;28;20272;-58
2023/12/04 09:34:53;;;;;;;19.58;13.07;;;;;;;;;;5075027;28;20220;-58
2023/12/04 09:37:20;;;;;;;17.85;12.40;;;;;;;;;;5075127;28;20593;-57
2023/12/04 09:39:49;;;;;;;19.27;13.38;;;;;;;;;;5074870;28;20193;-58
2023/12/04 09:42:18;;;;;;;22.90;14.15;;;;;;;;;;5074898;28;20200;-58
2023/12/04 09:44:45;;;;;;;18.50;12.88;;;;;;;;;;5074651;28;20215;-58
2023/12/04 09:47:12;;;;;;;18.83;12.07;;;;;;;;;;5074723;28;20721;-58
2023/12/04 09:49:40;;;;;;;26.73;12.68;;;;;;;;;;5074931;28;20192;-60
2023/12/04 09:52:07;;;;;;;16.73;12.15;;;;;;;;;;5074819;28;20235;-60
2023/12/04 09:54:35;;;;;;;14.52;10.05;;;;;;;;;;5074656;28;20320;-59
2023/12/04 09:57:04;;;;;;;16.80;10.75;;;;;;;;;;5074729;28;20564;-61
2023/12/04 09:59:32;;;;;;;18.50;11.18;;;;;;;;;;5074827;28;20189;-60
2023/12/04 10:01:59;;;;;;;14.40;10.55;;;;;;;;;;5074327;28;20277;-59
2023/12/04 10:04:26;;;;;;;13.07;10.25;;;;;;;;;;5074543;28;20284;-61
2023/12/04 10:06:53;;;;;;;14.57;11.02;;;;;;;;;;5074464;28;20292;-60
2023/12/04 10:09:22;;;;;;;15.02;10.32;;;;;;;;;;5074384;28;20238;-61
2023/12/04 10:11:50;;;;;;;14.85;10.32;;;;;;;;;;5074281;28;20284;-58
2023/12/04 10:14:19;;;;;;;17.02;11.35;;;;;;;;;;5074538;28;20197;-59
2023/12/04 10:16:46;;;;;;;12.65;10.35;;;;;;;;;;5074216;28;20228;-61
2023/12/04 10:19:17;;;;;;;13.75;9.95;;;;;;;;;;5073335;28;20193;-61
2023/12/04 10:21:44;;;;;;;13.50;9.07;;;;;;;;;;5074259;28;20192;-59
2023/12/04 10:24:11;;;;;;;11.90;9.10;;;;;;;;;;5074100;28;20204;-61
2023/12/04 10:26:38;;;;;;;12.73;8.65;;;;;;;;;;5074301;28;20217;-58
2023/12/04 10:29:06;;;;;;;12.52;9.45;;;;;;;;;;5074173;28;20317;-59
2023/12/04 10:31:35;;;;;;;14.18;9.90;;;;;;;;;;5072739;28;20190;-61
2023/12/04 10:34:02;;;;;;;13.07;9.18;;;;;;;;;;5074044;28;20283;-60
2023/12/04 10:36:29;;;;;;;15.15;11.32;;;;;;;;;;5073766;28;20189;-61
2023/12/04 10:39:00;;;;;;;10.77;8.13;;;;;;;;;;5073839;28;20276;-61
2023/12/04 10:41:27;;;;;;;26.52;14.35;;;;;;;;;;5073952;28;20584;-61
2023/12/04 10:43:54;;;;;;;13.43;8.57;;;;;;;;;;5073785;28;20617;-62
2023/12/04 10:46:22;;;;;;;9.90;7.72;;;;;;;;;;5073636;28;20239;-62
2023/12/04 10:48:50;;;;;;;12.80;9.23;;;;;;;;;;5073572;28;20656;-61
2023/12/04 10:51:18;;;;;;;10.68;7.85;;;;;;;;;;5073579;28;20636;-62
2023/12/04 10:53:45;;;;;;;13.13;8.77;;;;;;;;;;5073634;28;20276;-61
2023/12/04 10:56:17;;;;;;;11.80;8.80;;;;;;;;;;5073265;28;20604;-61
2023/12/04 10:58:44;;;;;;;11.60;8.73;;;;;;;;;;5073557;28;20192;-64
2023/12/04 11:01:12;;;;;;;10.65;8.18;;;;;;;;;;5073374;28;20301;-60
2023/12/04 11:03:44;;;;;;;11.70;8.48;;;;;;;;;;5073348;28;20193;-61
2023/12/04 11:06:13;;;;;;;10.18;8.20;;;;;;;;;;5073184;28;20213;-61
2023/12/04 11:08:41;;;;;;;12.13;9.00;;;;;;;;;;5073499;28;20223;-61
2023/12/04 11:11:10;;;;;;;13.65;8.60;;;;;;;;;;5073254;28;20193;-58
2023/12/04 11:13:40;;;;;;;11.85;8.95;;;;;;;;;;5073206;28;20195;-58
2023/12/04 11:16:09;;;;;;;10.93;8.50;;;;;;;;;;5073213;28;20242;-59
2023/12/04 11:18:38;;;;;;;10.75;8.45;;;;;;;;;;5073098;28;20195;-58
2023/12/04 11:21:07;;;;;;;12.85;9.18;;;;;;;;;;5073137;28;20283;-59
2023/12/04 11:23:36;;;;;;;13.63;8.85;;;;;;;;;;5073177;28;20228;-57
2023/12/04 11:26:04;;;;;;;17.25;10.20;;;;;;;;;;5073016;28;20218;-61
2023/12/04 11:28:32;;;;;;;12.48;8.30;;;;;;;;;;5072975;28;20396;-58
2023/12/04 11:30:59;;;;;;;10.23;8.32;;;;;;;;;;5072617;28;20193;-59
2023/12/04 11:33:26;;;;;;;10.85;8.55;;;;;;;;;;5073133;28;20276;-58
2023/12/04 11:35:53;;;;;;;13.52;9.30;;;;;;;;;;5072929;28;20609;-57
2023/12/04 11:38:20;;;;;;;9.98;8.10;;;;;;;;;;5072964;28;20598;-58
2023/12/04 11:40:48;;;;;;;12.57;8.82;;;;;;;;;;5072872;28;20189;-57
2023/12/04 11:43:26;;;;;;;11.40;8.15;;;;;;;;;;5072698;28;20191;-59
2023/12/04 11:45:53;;;;;;;10.73;8.02;;;;;;;;;;5072782;28;20226;-58
2023/12/04 11:48:24;;;;;;;11.60;9.02;;;;;;;;;;5072998;28;20185;-60
2023/12/04 11:50:51;;;;;;;11.68;9.02;;;;;;;;;;5072955;28;20193;-60
2023/12/04 11:53:18;;;;;;;12.05;8.73;;;;;;;;;;5072727;28;20568;-59
2023/12/04 11:55:47;;;;;;;11.52;8.80;;;;;;;;;;5072380;28;20324;-59
2023/12/04 11:58:17;;;;;;;13.27;8.82;;;;;;;;;;5072924;28;20292;-59
2023/12/04 12:00:44;;;;;;;10.75;8.63;;;;;;;;;;5072437;28;20668;-60
2023/12/04 12:03:11;;;;;;;12.93;8.40;;;;;;;;;;5072616;28;20191;-61
2023/12/04 12:05:40;;;;;;;12.88;8.70;;;;;;;;;;5072238;28;20217;-58
2023/12/04 12:08:08;;;;;;;12.80;9.02;;;;;;;;;;5072544;28;20189;-59
2023/12/04 12:10:35;;;;;;;12.45;9.57;;;;;;;;;;5072482;28;20200;-60
2023/12/04 12:13:02;;;;;;;12.27;8.68;;;;;;;;;;5072498;28;20197;-59
2023/12/04 12:15:30;;;;;;;11.25;7.95;;;;;;;;;;5072489;28;20197;-59
2023/12/04 12:17:57;;;;;;;10.68;8.10;;;;;;;;;;5072472;28;20186;-60
2023/12/04 12:20:24;;;;;;;12.77;9.30;;;;;;;;;;5072456;28;20621;-60
2023/12/04 12:22:51;;;;;;;10.77;8.70;;;;;;;;;;5072267;28;20264;-60
2023/12/04 12:25:19;;;;;;;11.07;8.40;;;;;;;;;;5072631;28;20189;-59
2023/12/04 12:27:46;;;;;;;11.50;9.02;;;;;;;;;;5072542;28;20379;-59
2023/12/04 12:30:13;;;;;;;13.98;9.50;;;;;;;;;;5066535;28;20605;-61
2023/12/04 12:32:42;;;;;;;11.80;8.52;;;;;;;;;;5051999;28;20190;-61
2023/12/04 12:35:09;;;;;;;10.55;8.20;;;;;;;;;;5051041;28;20201;-58
2023/12/04 12:37:36;;;;;;;11.95;8.25;;;;;;;;;;5052088;28;20225;-61
2023/12/04 12:40:05;;;;;;;13.48;9.15;;;;;;;;;;5051326;28;20281;-60
2023/12/04 12:42:33;;;;;;;13.73;8.57;;;;;;;;;;5054612;28;20197;-60
2023/12/04 12:45:01;;;;;;;14.27;8.38;;;;;;;;;;5056076;28;20197;-60
2023/12/04 12:47:29;;;;;;;13.10;8.93;;;;;;;;;;5055756;28;20316;-59
2023/12/04 12:49:58;;;;;;;12.40;8.57;;;;;;;;;;5055860;28;20193;-61
2023/12/04 12:52:24;;;;;;;10.63;8.52;;;;;;;;;;5055687;28;20194;-61
2023/12/04 12:54:53;;;;;;;12.23;8.60;;;;;;;;;;5055596;28;20234;-62
2023/12/04 12:57:20;;;;;;;9.95;8.85;;;;;;;;;;5055796;28;20190;-62
2023/12/04 12:59:47;;;;;;;10.75;8.15;;;;;;;;;;5055712;28;20276;-61
2023/12/04 13:02:16;;;;;;;10.57;7.68;;;;;;;;;;5055756;28;20190;-58
2023/12/04 13:04:44;;;;;;;11.52;8.73;;;;;;;;;;5055652;28;20273;-59
2023/12/04 13:07:12;;;;;;;12.75;8.75;;;;;;;;;;5055775;28;20224;-61
2023/12/04 13:09:39;;;;;;;14.15;9.30;;;;;;;;;;5055605;28;20645;-61
2023/12/04 13:12:07;;;;;;;12.30;9.00;;;;;;;;;;5055587;28;20281;-60
2023/12/04 13:14:35;;;;;;;13.75;9.95;;;;;;;;;;5055490;28;20263;-60
2023/12/04 13:17:02;;;;;;;14.13;9.65;;;;;;;;;;5055305;28;20688;-60
2023/12/04 13:19:31;;;;;;;12.20;9.38;;;;;;;;;;5055569;28;20190;-60
2023/12/04 13:21:58;;;;;;;11.60;8.68;;;;;;;;;;5055336;28;20190;-61
2023/12/04 13:24:27;;;;;;;11.80;8.25;;;;;;;;;;5055360;28;20225;-62
2023/12/04 13:26:54;;;;;;;16.08;10.30;;;;;;;;;;5055189;28;20301;-60
2023/12/04 13:29:21;;;;;;;17.10;10.75;;;;;;;;;;5055083;28;20226;-59
2023/12/04 13:31:50;;;;;;;11.65;9.27;;;;;;;;;;5055098;28;20277;-60
2023/12/04 13:34:17;;;;;;;11.70;9.30;;;;;;;;;;5055135;28;20190;-58
2023/12/04 13:36:44;;;;;;;14.50;10.30;;;;;;;;;;5055094;28;20277;-59
2023/12/04 13:39:16;;;;;;;14.13;8.57;;;;;;;;;;5054615;28;20200;-60
2023/12/04 13:44:30;;;;;;;14.90;9.82;;;;;;;;;;5054780;28;20201;-58
2023/12/04 13:46:57;;;;;;;16.40;11.02;;;;;;;;;;5054942;28;20217;-58
2023/12/04 13:49:24;;;;;;;17.55;11.90;;;;;;;;;;5054794;28;20252;-59
2023/12/04 13:51:53;;;;;;;16.30;10.25;;;;;;;;;;5054624;28;20194;-60
2023/12/04 13:54:21;;;;;;;15.10;10.57;;;;;;;;;;5053572;28;20190;-60
2023/12/04 13:56:53;;;;;;;14.43;9.15;;;;;;;;;;5063392;28;20268;-60
2023/12/04 13:59:21;;;;;;;13.20;9.60;;;;;;;;;;5072996;28;20190;-60
2023/12/04 14:01:49;;;;;;;13.32;10.18;;;;;;;;;;5072991;28;20634;-60
2023/12/04 14:04:16;;;;;;;11.65;9.70;;;;;;;;;;5073180;28;20283;-60
2023/12/04 14:06:43;;;;;;;12.80;10.00;;;;;;;;;;5070292;28;20688;-60
2023/12/04 14:09:14;;;;;;;14.95;11.07;;;;;;;;;;5073938;28;20184;-60
2023/12/04 14:11:41;;;;;;;16.48;11.15;;;;;;;;;;5074106;28;20218;-60
2023/12/04 14:14:09;;;;;;;17.05;10.40;;;;;;;;;;5074050;28;20227;-59
2023/12/04 14:16:36;;;;;;;15.68;10.18;;;;;;;;;;5073891;28;20276;-59
2023/12/04 14:19:03;;;;;;;15.10;10.73;;;;;;;;;;5073813;28;20280;-59
2023/12/04 14:21:30;;;;;;;16.60;10.95;;;;;;;;;;5073533;28;20178;-60
2023/12/04 14:23:57;;;;;;;15.90;10.48;;;;;;;;;;5073460;28;20189;-59
2023/12/04 14:26:24;;;;;;;16.13;10.82;;;;;;;;;;5073655;28;20296;-59
2023/12/04 14:28:51;;;;;;;17.13;11.52;;;;;;;;;;5073607;28;20637;-59
2023/12/04 14:31:20;;;;;;;14.50;10.60;;;;;;;;;;5073449;28;20182;-59
2023/12/04 14:33:47;;;;;;;13.45;10.73;;;;;;;;;;5073771;28;20258;-59
2023/12/04 14:36:14;;;;;;;13.65;10.15;;;;;;;;;;5073756;28;20185;-59
2023/12/04 14:38:41;;;;;;;15.10;10.93;;;;;;;;;;5074036;28;20276;-59
2023/12/04 14:41:10;;;;;;;14.40;10.35;;;;;;;;;;5073883;28;20185;-60
2023/12/04 14:43:37;;;;;;;15.18;10.40;;;;;;;;;;5073746;28;20195;-60
2023/12/04 14:46:04;;;;;;;14.88;10.85;;;;;;;;;;5073662;28;20190;-59
2023/12/04 14:48:33;;;;;;;14.77;9.70;;;;;;;;;;5073580;28;20296;-59
2023/12/04 14:51:00;;;;;;;14.07;10.02;;;;;;;;;;5073095;28;20269;-59
2023/12/04 14:53:30;;;;;;;15.13;10.00;;;;;;;;;;5073135;28;20264;-59
2023/12/04 14:59:19;;;;;;;16.17;9.50;;;;;;;;;;5072699;28;20216;-58
2023/12/04 15:10:27;;;;;;;16.27;11.40;;;;;;;;;;5073255;28;20248;-58
2023/12/04 15:13:16;;;;;;;14.63;10.55;;;;;;;;;;5073121;28;20221;-59
2023/12/04 15:16:03;;;;;;;13.82;10.20;;;;;;;;;;5073095;28;20587;-58
2023/12/04 15:18:36;;;;;;;15.43;11.20;;;;;;;;;;5072644;28;20193;-58
2023/12/04 15:21:05;;;;;;;13.25;10.05;;;;;;;;;;5073039;28;20193;-59
2023/12/04 15:23:31;;;;;;;12.98;9.60;;;;;;;;;;5073035;28;20215;-58
2023/12/04 15:25:58;;;;;;;18.10;11.15;;;;;;;;;;5072813;28;20280;-58
2023/12/04 15:28:24;;;;;;;13.77;10.90;;;;;;;;;;5072886;28;20217;-58
2023/12/04 15:30:51;;;;;;;15.82;12.23;;;;;;;;;;5073271;28;20295;-58
2023/12/04 15:33:18;;;;;;;15.95;12.23;;;;;;;;;;5072873;28;20295;-58
2023/12/04 15:35:44;;;;;;;17.90;11.63;;;;;;;;;;5072869;28;20644;-59
2023/12/04 15:38:12;;;;;;;15.85;11.25;;;;;;;;;;5072895;28;20204;-58
2023/12/04 15:40:39;;;;;;;17.15;12.43;;;;;;;;;;5072874;28;20193;-58
2023/12/04 15:43:05;;;;;;;14.60;10.45;;;;;;;;;;5072796;28;20197;-58
2023/12/04 15:45:32;;;;;;;15.13;11.00;;;;;;;;;;5072834;28;20197;-59
2023/12/04 15:47:59;;;;;;;16.92;10.70;;;;;;;;;;5072692;28;20489;-58
2023/12/04 15:50:25;;;;;;;12.88;10.05;;;;;;;;;;5072797;28;20276;-59
2023/12/04 15:52:52;;;;;;;14.15;9.40;;;;;;;;;;5073172;28;20246;-58
2023/12/04 15:55:20;;;;;;;12.93;10.43;;;;;;;;;;5072596;28;20279;-59
2023/12/04 15:57:54;;;;;;;13.50;9.77;;;;;;;;;;5072603;28;20196;-58
2023/12/04 16:00:21;;;;;;;14.43;11.27;;;;;;;;;;5072814;28;20196;-58
2023/12/04 16:02:48;;;;;;;13.35;10.55;;;;;;;;;;5072697;28;20276;-59
2023/12/04 16:05:15;;;;;;;14.57;10.30;;;;;;;;;;5072698;28;20622;-58
2023/12/04 16:07:42;;;;;;;16.85;10.57;;;;;;;;;;5072553;28;20217;-58
2023/12/04 16:10:10;;;;;;;16.45;10.68;;;;;;;;;;5072250;28;20191;-58
2023/12/04 16:12:38;;;;;;;15.43;10.50;;;;;;;;;;5072728;28;20538;-58
2023/12/04 16:15:07;;;;;;;14.73;10.95;;;;;;;;;;5072648;28;20281;-59
2023/12/04 16:17:34;;;;;;;15.35;10.05;;;;;;;;;;5075202;28;20189;-59
2023/12/04 16:20:02;;;;;;;11.13;9.55;;;;;;;;;;5076514;28;20543;-58
2023/12/04 16:22:29;;;;;;;13.57;10.43;;;;;;;;;;5076235;28;20189;-59
2023/12/04 16:24:56;;;;;;;15.98;12.52;;;;;;;;;;5076564;28;20189;-58
2023/12/04 16:27:23;;;;;;;15.50;11.98;;;;;;;;;;5076285;28;20572;-58
2023/12/04 16:29:51;;;;;;;17.08;11.77;;;;;;;;;;5076360;28;20192;-59
2023/12/04 16:32:17;;;;;;;17.63;11.27;;;;;;;;;;5076388;28;20185;-58
2023/12/04 16:34:44;;;;;;;17.42;12.35;;;;;;;;;;5076317;28;20314;-58
2023/12/04 16:37:11;;;;;;;14.73;11.65;;;;;;;;;;5076200;28;20617;-59
2023/12/04 16:39:38;;;;;;;20.10;13.40;;;;;;;;;;5076375;28;20185;-59
2023/12/04 16:42:05;;;;;;;13.85;12.05;;;;;;;;;;5076251;28;20185;-59
2023/12/04 16:44:32;;;;;;;14.85;11.57;;;;;;;;;;5076267;28;20611;-59
2023/12/04 16:47:00;;;;;;;13.13;10.93;;;;;;;;;;5075970;28;20300;-58
2023/12/04 16:49:27;;;;;;;12.63;10.18;;;;;;;;;;5076104;28;20300;-58
2023/12/04 16:51:54;;;;;;;16.65;11.27;;;;;;;;;;5075916;28;20648;-58
2023/12/04 16:54:21;;;;;;;17.63;11.93;;;;;;;;;;5075861;28;20225;-59
2023/12/04 16:56:48;;;;;;;18.17;12.13;;;;;;;;;;5076013;28;20276;-59
2023/12/04 16:59:15;;;;;;;15.90;11.18;;;;;;;;;;5075784;28;20242;-58
2023/12/04 17:01:42;;;;;;;15.73;10.65;;;;;;;;;;5075843;28;20284;-59
2023/12/04 17:04:12;;;;;;;15.23;10.57;;;;;;;;;;5075466;28;20280;-58
2023/12/04 17:06:39;;;;;;;16.95;10.68;;;;;;;;;;5075852;28;20247;-59
2023/12/04 17:09:07;;;;;;;17.08;11.50;;;;;;;;;;5075502;28;20217;-58
2023/12/04 17:11:34;;;;;;;15.85;10.90;;;;;;;;;;5075495;28;20240;-59
2023/12/04 17:14:01;;;;;;;18.52;13.88;;;;;;;;;;5075465;28;20548;-58
2023/12/04 17:16:28;;;;;;;15.23;11.98;;;;;;;;;;5075510;28;20185;-58
2023/12/04 17:18:55;;;;;;;17.77;11.77;;;;;;;;;;5075327;28;20192;-59
2023/12/04 17:21:24;;;;;;;17.35;12.27;;;;;;;;;;5075587;28;20568;-58
2023/12/04 17:23:51;;;;;;;19.42;12.35;;;;;;;;;;5075511;28;20192;-58
2023/12/04 17:26:17;;;;;;;17.02;12.75;;;;;;;;;;5075363;28;20192;-58
2023/12/04 17:28:44;;;;;;;15.88;11.15;;;;;;;;;;5074746;28;20579;-58
2023/12/04 17:31:11;;;;;;;15.02;11.00;;;;;;;;;;5075242;28;20280;-59
2023/12/04 17:33:38;;;;;;;14.98;10.48;;;;;;;;;;5075184;28;20189;-59
2023/12/04 17:36:06;;;;;;;13.93;11.13;;;;;;;;;;5075374;28;20202;-58
2023/12/04 17:38:34;;;;;;;16.98;10.52;;;;;;;;;;5075263;28;20607;-58
2023/12/04 17:41:02;;;;;;;14.32;9.90;;;;;;;;;;5075204;28;20189;-59
2023/12/04 17:43:31;;;;;;;18.63;11.35;;;;;;;;;;5075001;28;20684;-58
2023/12/04 17:45:58;;;;;;;16.98;11.52;;;;;;;;;;5074922;28;20279;-58
2023/12/04 17:48:25;;;;;;;14.45;10.52;;;;;;;;;;5075125;28;20307;-59
2023/12/04 17:50:52;;;;;;;17.65;11.60;;;;;;;;;;5075084;28;20619;-59
2023/12/04 17:53:19;;;;;;;15.65;9.88;;;;;;;;;;5074900;28;20189;-59
2023/12/04 17:55:47;;;;;;;15.98;10.30;;;;;;;;;;5074668;28;20229;-58
2023/12/04 17:58:14;;;;;;;17.65;12.05;;;;;;;;;;5074610;28;20285;-59
2023/12/04 18:00:41;;;;;;;15.68;10.25;;;;;;;;;;5074609;28;20194;-58
2023/12/04 18:03:08;;;;;;;16.70;12.35;;;;;;;;;;5074948;28;20653;-59
2023/12/04 18:05:35;;;;;;;19.10;12.45;;;;;;;;;;5074668;28;20193;-58
2023/12/04 18:08:03;;;;;;;18.88;11.27;;;;;;;;;;5074569;28;20576;-58
2023/12/04 18:10:30;;;;;;;22.02;14.35;;;;;;;;;;5074489;28;20189;-58
2023/12/04 18:12:58;;;;;;;17.40;11.38;;;;;;;;;;5074357;28;20185;-59
2023/12/04 18:15:25;;;;;;;16.83;11.43;;;;;;;;;;5074624;28;20276;-58
2023/12/04 18:17:52;;;;;;;27.95;15.25;;;;;;;;;;5074459;28;20671;-58
2023/12/04 18:20:19;;;;;;;23.50;13.63;;;;;;;;;;5074380;28;20220;-59
2023/12/04 18:22:48;;;;;;;18.92;11.70;;;;;;;;;;5074260;28;20185;-58
2023/12/04 18:25:16;;;;;;;22.90;13.85;;;;;;;;;;5074107;28;20254;-59
2023/12/04 18:27:43;;;;;;;21.90;13.25;;;;;;;;;;5074023;28;20241;-58
2023/12/04 18:30:15;;;;;;;27.15;14.63;;;;;;;;;;5074223;28;20189;-58
2023/12/04 18:32:43;;;;;;;22.38;14.15;;;;;;;;;;5074053;28;20644;-59
2023/12/04 18:35:10;;;;;;;25.52;16.63;;;;;;;;;;5074092;28;20193;-58
2023/12/04 18:37:45;;;;;;;24.48;15.18;;;;;;;;;;5073966;28;20276;-58
2023/12/04 18:40:12;;;;;;;20.52;13.18;;;;;;;;;;5073126;28;20192;-58
2023/12/04 18:42:40;;;;;;;20.13;12.50;;;;;;;;;;5074085;28;20242;-58
2023/12/04 18:45:08;;;;;;;20.27;14.30;;;;;;;;;;5073851;28;20189;-58
2023/12/04 18:47:37;;;;;;;20.20;12.90;;;;;;;;;;5073797;28;20491;-59
2023/12/04 18:50:04;;;;;;;21.05;13.88;;;;;;;;;;5073772;28;20276;-58
2023/12/04 18:52:33;;;;;;;17.05;12.88;;;;;;;;;;5073633;28;20280;-59
2023/12/04 18:55:00;;;;;;;22.63;13.93;;;;;;;;;;5073664;28;20596;-58
2023/12/04 18:57:27;;;;;;;21.00;14.50;;;;;;;;;;5073704;28;20189;-58
2023/12/04 18:59:54;;;;;;;21.15;13.50;;;;;;;;;;5073729;28;20192;-59
2023/12/04 19:02:21;;;;;;;25.73;15.73;;;;;;;;;;5073522;28;20298;-58
2023/12/04 19:04:49;;;;;;;29.23;15.65;;;;;;;;;;5073427;28;20200;-59
2023/12/04 19:07:16;;;;;;;23.38;15.10;;;;;;;;;;5073288;28;20193;-58
2023/12/04 19:09:43;;;;;;;26.20;17.45;;;;;;;;;;5073464;28;20219;-58
2023/12/04 19:12:10;;;;;;;26.95;17.20;;;;;;;;;;5073456;28;20193;-58
2023/12/04 19:14:39;;;;;;;29.52;16.88;;;;;;;;;;5073395;28;20185;-58
2023/12/04 19:17:06;;;;;;;21.63;15.30;;;;;;;;;;5073358;28;20196;-58
2023/12/04 19:19:34;;;;;;;26.60;16.98;;;;;;;;;;5073219;28;20195;-58
2023/12/04 19:22:03;;;;;;;25.83;16.70;;;;;;;;;;5073632;28;20584;-58
2023/12/04 19:24:30;;;;;;;29.73;17.38;;;;;;;;;;5073273;28;20186;-58
2023/12/04 19:26:58;;;;;;;27.92;17.20;;;;;;;;;;5073232;28;20247;-58
2023/12/04 19:29:25;;;;;;;25.77;15.38;;;;;;;;;;5073196;28;20232;-58
2023/12/04 19:31:52;;;;;;;27.08;18.08;;;;;;;;;;5073128;28;20193;-58
2023/12/04 19:34:19;;;;;;;26.45;15.52;;;;;;;;;;5073049;28;20185;-59
2023/12/04 19:36:46;;;;;;;34.15;18.23;;;;;;;;;;5073210;28;20282;-58
2023/12/04 19:39:15;;;;;;;26.80;16.05;;;;;;;;;;5073197;28;20219;-58
2023/12/04 19:41:42;;;;;;;37.58;20.20;;;;;;;;;;5073050;28;20284;-58
2023/12/04 19:44:09;;;;;;;29.00;16.63;;;;;;;;;;5072919;28;20710;-58
2023/12/04 19:46:40;;;;;;;28.00;17.27;;;;;;;;;;5072965;28;20193;-59
2023/12/04 19:49:07;;;;;;;30.73;17.10;;;;;;;;;;5072673;28;20213;-59
2023/12/04 19:51:34;;;;;;;28.60;16.50;;;;;;;;;;5072847;28;20220;-59
2023/12/04 19:54:01;;;;;;;24.00;16.73;;;;;;;;;;5072794;28;20192;-59
2023/12/04 19:56:29;;;;;;;29.67;15.55;;;;;;;;;;5072946;28;20238;-59
2023/12/04 19:58:56;;;;;;;28.48;17.75;;;;;;;;;;5072940;28;20258;-59
2023/12/04 20:01:27;;;;;;;29.75;18.02;;;;;;;;;;5072743;28;20189;-59
2023/12/04 20:03:54;;;;;;;31.00;19.05;;;;;;;;;;5073020;28;20296;-59
2023/12/04 20:06:21;;;;;;;27.38;17.65;;;;;;;;;;5072883;28;20644;-60
2023/12/04 20:08:48;;;;;;;27.38;17.65;;;;;;;;;;5072642;28;20223;-59
2023/12/04 20:11:15;;;;;;;30.08;19.10;;;;;;;;;;5072799;28;20189;-59
2023/12/04 20:13:43;;;;;;;31.13;17.77;;;;;;;;;;5072632;28;20284;-59
2023/12/04 20:16:11;;;;;;;31.25;17.65;;;;;;;;;;5072882;28;20286;-59
2023/12/04 20:18:38;;;;;;;32.10;16.92;;;;;;;;;;5072744;28;20193;-59
2023/12/04 20:21:05;;;;;;;31.33;19.23;;;;;;;;;;5072792;28;20189;-59
2023/12/04 20:23:32;;;;;;;28.55;18.50;;;;;;;;;;5072630;28;20199;-59
2023/12/04 20:25:59;;;;;;;27.45;18.05;;;;;;;;;;5072688;28;20247;-59
2023/12/04 20:28:27;;;;;;;28.17;18.42;;;;;;;;;;5072450;28;20251;-59
2023/12/04 20:30:56;;;;;;;34.85;19.70;;;;;;;;;;5072752;28;20196;-59
2023/12/04 20:33:23;;;;;;;37.53;19.77;;;;;;;;;;5072720;28;20186;-59
2023/12/04 20:35:50;;;;;;;33.70;19.75;;;;;;;;;;5072586;28;20280;-59
2023/12/04 20:38:18;;;;;;;36.50;19.58;;;;;;;;;;5072566;28;20193;-59
2023/12/04 20:40:45;;;;;;;36.78;18.65;;;;;;;;;;5072429;28;20196;-60
2023/12/04 20:43:13;;;;;;;30.83;19.10;;;;;;;;;;5072373;28;20196;-59
2023/12/04 20:45:41;;;;;;;28.80;18.20;;;;;;;;;;5072606;28;20200;-59
2023/12/04 20:48:10;;;;;;;36.03;19.92;;;;;;;;;;5072404;28;20218;-59
2023/12/04 20:50:39;;;;;;;30.17;20.50;;;;;;;;;;5072449;28;20619;-59
2023/12/04 20:53:06;;;;;;;35.92;18.92;;;;;;;;;;5072354;28;20198;-59
2023/12/04 20:55:33;;;;;;;31.05;18.65;;;;;;;;;;5072041;28;20224;-59
2023/12/04 20:58:00;;;;;;;38.83;19.13;;;;;;;;;;5072484;28;20193;-59
2023/12/04 21:00:30;;;;;;;31.02;20.05;;;;;;;;;;5072432;28;20609;-59
2023/12/04 21:02:57;;;;;;;38.70;20.70;;;;;;;;;;5073918;28;20547;-59
2023/12/04 21:05:25;;;;;;;33.08;20.33;;;;;;;;;;5075887;28;20598;-59
2023/12/04 21:07:52;;;;;;;40.53;21.77;;;;;;;;;;5075771;28;20276;-59
2023/12/04 21:10:19;;;;;;;37.83;21.50;;;;;;;;;;5075836;28;20299;-59
2023/12/04 21:12:46;;;;;;;42.05;22.65;;;;;;;;;;5075853;28;20283;-59
2023/12/04 21:15:13;;;;;;;44.50;21.77;;;;;;;;;;5075795;28;20192;-59
2023/12/04 21:17:40;;;;;;;33.80;19.92;;;;;;;;;;5075599;28;20276;-59
2023/12/04 21:20:09;;;;;;;34.22;20.58;;;;;;;;;;5075557;28;20593;-59
2023/12/04 21:22:38;;;;;;;33.40;19.17;;;;;;;;;;5075421;28;20200;-59
2023/12/04 21:25:05;;;;;;;37.97;20.35;;;;;;;;;;5075451;28;20741;-59
2023/12/04 21:27:32;;;;;;;38.80;21.42;;;;;;;;;;5075602;28;20272;-59
2023/12/04 21:29:59;;;;;;;30.80;19.73;;;;;;;;;;5075356;28;20245;-59
2023/12/04 21:32:27;;;;;;;36.55;21.25;;;;;;;;;;5075401;28;20573;-59
2023/12/04 21:34:53;;;;;;;34.28;20.55;;;;;;;;;;5075253;28;20644;-59
2023/12/04 21:37:20;;;;;;;34.85;21.75;;;;;;;;;;5075213;28;20189;-59
2023/12/04 21:39:51;;;;;;;36.70;20.33;;;;;;;;;;5075391;28;20243;-59
2023/12/04 21:42:18;;;;;;;32.15;19.58;;;;;;;;;;5075317;28;20204;-59
2023/12/04 21:44:45;;;;;;;35.13;21.42;;;;;;;;;;5075243;28;20189;-59
2023/12/04 21:47:12;;;;;;;37.00;20.80;;;;;;;;;;5075084;28;20283;-59
2023/12/04 21:49:39;;;;;;;33.83;19.33;;;;;;;;;;5074842;28;20252;-59
2023/12/04 21:52:06;;;;;;;31.88;19.35;;;;;;;;;;5075157;28;20199;-59
2023/12/04 21:54:33;;;;;;;33.53;19.17;;;;;;;;;;5074926;28;20304;-59
2023/12/04 21:57:02;;;;;;;34.05;19.65;;;;;;;;;;5074937;28;20275;-59
2023/12/04 21:59:28;;;;;;;37.10;21.88;;;;;;;;;;5074921;28;20196;-59
2023/12/04 22:01:57;;;;;;;35.00;20.15;;;;;;;;;;5074824;28;20451;-59
2023/12/04 22:04:24;;;;;;;32.83;19.75;;;;;;;;;;5074718;28;20248;-59
2023/12/04 22:06:51;;;;;;;33.63;18.80;;;;;;;;;;5074874;28;20185;-59
2023/12/04 22:09:18;;;;;;;39.97;21.00;;;;;;;;;;5074730;28;20220;-59
2023/12/04 22:11:45;;;;;;;38.72;21.08;;;;;;;;;;5074683;28;20276;-59
2023/12/04 22:14:13;;;;;;;37.08;20.00;;;;;;;;;;5074562;28;20707;-59
2023/12/04 22:16:40;;;;;;;35.53;19.65;;;;;;;;;;5074398;28;20709;-59
2023/12/04 22:19:07;;;;;;;30.02;18.92;;;;;;;;;;5074610;28;20232;-59
2023/12/04 22:21:34;;;;;;;35.15;19.50;;;;;;;;;;5074537;28;20284;-59
2023/12/04 22:24:01;;;;;;;29.73;18.90;;;;;;;;;;5074448;28;20221;-59
2023/12/04 22:26:28;;;;;;;38.00;21.65;;;;;;;;;;5074411;28;20613;-59
2023/12/04 22:28:55;;;;;;;33.38;19.15;;;;;;;;;;5074261;28;20563;-59
2023/12/04 22:31:24;;;;;;;33.13;19.92;;;;;;;;;;5074177;28;20193;-59
2023/12/04 22:33:50;;;;;;;38.58;20.77;;;;;;;;;;5074369;28;20276;-59